Weather observations for the past three days for
Chester, Chester Airport
Imperial (Metric)
Date Time (edt) Wind (mph) Vis. (mi.) Weather Sky Cond. Temperature (ºF) Relative Humidity Wind Chill (°F) Heat Index (°F) Pressure Precipitation (in)
Air Dwpt 6 hour altimeter (in) sea level (mb) 1 hr 3 hr 6 hr
Max. Min.
06 08:35 S 13 G 18 8.00 Partly Cloudy SCT014 SCT019 SCT120 62.6 55.4 77% 29.87 0.0
06 08:15 S 9 8.00 Partly Cloudy FEW013 SCT120 62.6 55.4 77% 29.87 0.0
06 07:55 SE 14 G 20 8.00 A Few Clouds FEW011 60.8 55.4 83% 29.87 0.0
06 07:35 Vrbl 8 G 18 7.00 Partly Cloudy SCT011 SCT055 60.8 57.2 88% 29.87 0.0
06 07:15 SE 9 G 17 7.00 Mostly Cloudy BKN009 59 57.2 94% 29.87 0.0
06 06:55 Vrbl 5 G 18 7.00 Mostly Cloudy BKN008 57.2 57.2 100% 29.87 0.0
06 06:35 SE 10 G 17 6.00 Fog/Mist BKN009 57.2 55.4 94% 29.87 0.0
06 06:15 SE 9 G 17 6.00 Fog/Mist BKN009 57.2 55.4 94% 29.87 0.0
06 05:55 SE 9 6.00 Fog/Mist BKN009 57.2 55.4 94% 29.86 0.0
06 05:35 Vrbl 7 G 14 9.00 Mostly Cloudy BKN010 57.2 55.4 94% 29.86 0.0
06 05:15 S 10 G 16 8.00 Partly Cloudy SCT010 57.2 55.4 94% 29.87 0.0
06 04:55 S 12 G 18 8.00 Fair CLR 57.2 55.4 94% 29.87 0.0
06 04:35 SE 8 G 16 10.00 Fair CLR 57.2 55.4 94% 29.87 0.0
06 04:15 S 9 G 16 8.00 Fair CLR 57.2 55.4 94% 29.87 0.0
06 03:55 S 8 G 15 9.00 Fair CLR 57.2 55.4 94% 29.88 0.0
06 03:35 Vrbl 7 G 17 9.00 Fair CLR 57.2 55.4 94% 29.88 0.0
06 03:15 Vrbl 7 G 20 9.00 Fair CLR 57.2 55.4 94% 29.88 0.0
06 02:55 S 9 10.00 Fair CLR 57.2 55.4 94% 29.87 0.0
06 02:35 S 9 9.00 Fair CLR 57.2 53.6 88% 29.87 0.0
06 01:55 Vrbl 7 G 15 10.00 Fair CLR 59 53.6 82% 29.88 0.0
06 01:35 S 10 G 21 10.00 Fair CLR 59 53.6 82% 29.89 0.0
06 01:15 Vrbl 7 G 15 9.00 Fair CLR 59 53.6 82% 29.89 0.0
06 00:55 S 9 G 18 10.00 Fair CLR 59 53.6 82% 29.89 0.0
06 00:35 S 9 G 21 10.00 Fair CLR 59 53.6 82% 29.89 0.0
06 00:15 SE 10 9.00 Fair CLR 59 53.6 82% 29.89 0.0
05 23:55 S 10 G 22 10.00 Fair CLR 59 53.6 82% 29.9 0.0
05 23:35 SE 13 G 18 10.00 Fair CLR 59 53.6 82% 29.89 0.0
05 23:15 S 10 G 18 10.00 Fair CLR 60.8 53.6 77% 29.89 0.0
05 22:55 S 13 G 20 10.00 Fair CLR 60.8 51.8 72% 29.89 0.0
05 22:35 SE 13 G 20 10.00 Fair CLR 60.8 51.8 72% 29.89 0.0
05 22:15 SE 16 G 22 10.00 Fair CLR 62.6 51.8 68% 29.88 0.0
05 21:55 SE 8 G 17 10.00 Fair CLR 60.8 51.8 72% 29.88 0.0
05 21:35 SE 14 G 24 10.00 Fair CLR 60.8 51.8 72% 29.87 0.0
05 21:15 SE 9 G 21 10.00 Fair CLR 60.8 51.8 72% 29.87 0.0
05 20:55 SE 17 G 30 9.00 Fair CLR 60.8 51.8 72% 29.86 0.0
05 20:35 S 13 G 23 10.00 Fair CLR 60.8 50 68% 29.86 0.0
05 20:15 S 12 G 21 9.00 Fair CLR 60.8 50 68% 29.85 0.0
05 19:55 S 10 G 21 9.00 Fair CLR 62.6 50 64% 29.84 0.0
05 19:35 SE 13 G 28 9.00 Fair CLR 62.6 50 64% 29.83 0.0
05 19:15 SE 13 G 20 8.00 Fair CLR 62.6 50 64% 29.82 0.0
05 18:55 SE 10 G 17 9.00 Fair CLR 64.4 50 60% 29.83 0.0
05 18:35 SE 10 G 21 9.00 Fair CLR 66.2 50 56% 29.83 0.0
05 18:15 SE 16 G 23 9.00 Fair CLR 66.2 50 56% 29.82 0.0
05 17:55 S 13 G 24 9.00 Fair CLR 68 50 53% 29.82 0.0
05 17:35 S 8 G 26 9.00 Fair CLR 68 50 53% 29.82 0.0
05 17:15 S 14 G 24 9.00 Fair CLR 69.8 50 50% 29.81 0.0
05 16:55 SE 14 9.00 Fair CLR 69.8 50 50% 29.81 0.0
05 16:35 S 8 G 22 10.00 Fair CLR 69.8 50 50% 29.81 0.0
05 16:15 SE 12 9.00 Fair CLR 69.8 51.8 53% 29.82 0.0
05 15:55 SE 12 G 17 9.00 Fair CLR 71.6 51.8 50% 29.82 0.0
05 15:35 S 13 G 21 9.00 Fair CLR 71.6 51.8 50% 29.82 0.0
05 15:15 SE 10 G 17 9.00 Fair CLR 71.6 51.8 50% 29.83 0.0
05 14:55 SE 14 G 21 9.00 Fair CLR 71.6 51.8 50% 29.83 0.0
05 14:35 SE 12 G 18 9.00 Fair CLR 71.6 51.8 50% 29.83 0.0
05 14:15 SE 16 G 22 9.00 Fair CLR 71.6 51.8 50% 29.83 0.0
05 13:55 SE 14 G 20 9.00 Fair CLR 73.4 51.8 47% 29.84 0.0
05 13:35 SE 13 G 18 9.00 Fair CLR 73.4 51.8 47% 29.84 0.0
05 13:15 S 15 9.00 Fair CLR 73.4 51.8 47% 29.84 0.0
05 12:55 S 13 9.00 Fair CLR 71.6 51.8 50% 29.85 0.0
05 12:35 SE 13 10.00 Fair CLR 71.6 51.8 50% 29.85 0.0
05 12:15 S 10 G 17 9.00 Fair CLR 71.6 51.8 50% 29.86 0.0
05 11:55 SE 12 G 18 9.00 Fair CLR 69.8 51.8 53% 29.87 0.0
05 11:35 Vrbl 7 G 14 8.00 Fair CLR 68 53.6 60% 29.88 0.0
05 11:15 S 10 G 18 9.00 Fair CLR 69.8 53.6 57% 29.88 0.0
05 10:55 SE 12 9.00 Fair CLR 69.8 51.8 53% 29.88 0.0
05 10:35 Calm 9.00 Fair CLR 69.8 51.8 53% 29.87 0.0
05 10:15 S 10 G 18 10.00 Fair CLR 66.2 51.8 60% 29.87 0.0
05 09:55 S 9 9.00 Fair CLR 66.2 51.8 60% 29.86 0.0
05 09:35 SE 12 9.00 A Few Clouds FEW100 66.2 51.8 60% 29.87 0.0
05 09:15 Vrbl 6 9.00 A Few Clouds FEW110 64.4 51.8 64% 29.87 0.0
05 08:55 Vrbl 7 8.00 A Few Clouds FEW042 FEW070 FEW085 64.4 53.6 68% 29.87 0.0
05 08:35 Vrbl 6 G 14 8.00 Fair CLR 60.8 53.6 77% 29.87 0.0
05 08:15 Vrbl 6 G 12 8.00 Partly Cloudy FEW080 SCT095 55.4 53.6 94% 29.88 0.0
05 07:55 Vrbl 6 8.00 Mostly Cloudy BKN080 BKN100 BKN120 55.4 53.6 94% 29.88 0.0
05 07:35 Vrbl 5 G 12 8.00 A Few Clouds FEW080 FEW120 57.2 53.6 88% 29.87 0.0
05 07:15 Vrbl 6 7.00 Fair CLR 55.4 53.6 94% 29.87 0.0
05 06:55 Vrbl 7 7.00 Fair CLR 55.4 53.6 94% 29.86 0.0
05 06:35 Vrbl 7 6.00 Fog/Mist CLR 53.6 51.8 94% 29.86 0.0
05 06:15 S 8 6.00 Fog/Mist CLR 51.8 51.8 100% 29.85 0.0
05 05:55 Vrbl 5 7.00 Fair CLR 51.8 51.8 100% 29.85 0.0
05 05:35 S 8 8.00 Fair CLR 51.8 51.8 100% 29.85 0.0
05 05:15 Vrbl 6 8.00 Fair CLR 51.8 51.8 100% 29.85 0.0
05 04:55 Vrbl 3 G 13 9.00 Fair CLR 51.8 51.8 100% 29.85 0.0
05 04:35 Vrbl 3 8.00 Fair CLR 51.8 51.8 100% 29.85 0.0
05 04:15 Calm 9.00 Fair CLR 51.8 51.8 100% 29.85 0.0
05 03:55 Calm 9.00 Fair CLR 51.8 51.8 100% 29.85 0.0
05 03:35 Calm 9.00 Fair CLR 51.8 51.8 100% 29.86 0.0
05 03:15 Vrbl 6 10.00 A Few Clouds FEW095 51.8 51.8 100% 29.86 0.0
05 02:55 Vrbl 7 10.00 A Few Clouds FEW095 51.8 50 94% 29.86 0.0
05 02:35 Vrbl 6 9.00 Fair CLR 51.8 50 94% 29.86 0.0
05 02:15 Calm 10.00 Fair CLR 51.8 50 94% 29.86 0.0
05 01:55 Vrbl 6 10.00 Fair CLR 53.6 50 88% 29.87 0.0
05 01:35 Vrbl 6 10.00 Fair CLR 51.8 50 94% 29.87 0.0
05 01:15 Vrbl 3 10.00 Fair CLR 51.8 48.2 88% 29.87 0.0
05 00:55 Calm 10.00 Fair CLR 51.8 48.2 88% 29.88 0.0
05 00:35 Calm 10.00 Fair CLR 51.8 48.2 88% 29.88 0.0
05 00:15 Calm 10.00 Fair CLR 51.8 48.2 88% 29.88 0.0
04 23:55 Calm 10.00 Fair CLR 51.8 48.2 88% 29.88 0.0
04 23:35 Calm 10.00 Fair CLR 51.8 46.4 82% 29.88 0.0
04 23:15 Vrbl 6 10.00 Fair CLR 53.6 46.4 77% 29.88 0.0
04 22:55 Vrbl 6 10.00 Fair CLR 53.6 46.4 77% 29.88 0.0
04 22:35 Calm 10.00 Fair CLR 53.6 46.4 77% 29.88 0.0
04 22:15 Calm 10.00 Fair CLR 53.6 46.4 77% 29.88 0.0
04 21:55 Vrbl 7 10.00 Fair CLR 53.6 46.4 77% 29.88 0.0
04 21:35 Vrbl 5 10.00 Fair CLR 53.6 46.4 77% 29.88 0.0
04 21:15 S 8 G 14 10.00 Fair CLR 53.6 46.4 77% 29.88 0.0
04 20:55 S 10 G 16 10.00 Fair CLR 53.6 46.4 77% 29.87 0.0
04 20:35 Vrbl 7 G 17 10.00 Fair CLR 55.4 44.6 67% 29.86 0.0
04 20:15 Vrbl 7 G 15 10.00 Fair CLR 55.4 44.6 67% 29.85 0.0
04 19:55 SE 9 9.00 Fair CLR 55.4 44.6 67% 29.84 0.0
04 19:35 SE 12 G 24 10.00 Fair CLR 57.2 42.8 59% 29.84 0.0
04 19:15 SE 12 G 17 10.00 Fair CLR 59 42.8 55% 29.84 0.0
04 18:55 SE 10 G 17 10.00 Fair CLR 60.8 41 48% 29.83 0.0
04 18:35 SE 12 G 18 10.00 Fair CLR 62.6 39.2 42% 29.83 0.0
04 18:15 SE 13 G 20 9.00 Fair CLR 62.6 41 45% 29.83 0.0
04 17:55 SE 15 G 22 10.00 Fair CLR 64.4 39.2 40% 29.83 0.0
04 17:35 SE 13 G 26 10.00 Fair CLR 64.4 39.2 40% 29.83 0.0
04 17:15 S 16 G 23 10.00 Fair CLR 66.2 39.2 37% 29.83 0.0
04 16:55 S 14 G 24 10.00 Fair CLR 66.2 39.2 37% 29.82 0.0
04 16:35 SE 10 G 23 10.00 Fair CLR 66.2 37.4 35% 29.82 0.0
04 16:15 S 9 G 20 9.00 Fair CLR 68 37.4 33% 29.82 0.0
04 15:55 SE 15 G 22 10.00 Fair CLR 68 37.4 33% 29.83 0.0
04 15:35 S 10 G 21 10.00 Fair CLR 68 37.4 33% 29.83 0.0
04 15:15 S 12 G 22 10.00 Fair CLR 68 37.4 33% 29.83 0.0
04 14:55 SE 15 G 24 10.00 Fair CLR 68 35.6 30% 29.83 0.0
04 14:35 SE 10 G 25 10.00 Fair CLR 68 33.8 28% 29.84 0.0
04 14:15 S 15 G 25 10.00 Fair CLR 68 32 26% 29.84 0.0
04 13:55 S 15 G 28 10.00 Fair CLR 66.2 32 28% 29.85 0.0
04 13:35 S 15 G 30 10.00 Fair CLR 66.2 30.2 26% 29.85 0.0
04 13:15 S 21 G 32 10.00 Fair and Breezy CLR 66.2 30.2 26% 29.85 0.0
04 12:55 S 10 G 28 10.00 Fair CLR 66.2 30.2 26% 29.85 0.0
04 12:35 S 20 G 28 10.00 Fair CLR 66.2 30.2 26% 29.86 0.0
04 12:15 S 14 G 25 10.00 Fair CLR 64.4 30.2 28% 29.87 0.0
04 11:55 S 22 G 33 10.00 Fair and Breezy CLR 64.4 30.2 28% 29.88 0.0
04 11:35 S 16 G 29 10.00 Fair CLR 64.4 30.2 28% 29.89 0.0
04 11:15 S 14 G 24 10.00 Fair CLR 64.4 30.2 28% 29.89 0.0
04 10:55 S 13 G 23 10.00 Fair CLR 62.6 30.2 30% 29.9 0.0
04 10:35 Vrbl 7 G 18 10.00 Fair CLR 62.6 30.2 30% 29.9 0.0
04 10:15 SE 13 G 23 10.00 Fair CLR 62.6 32 32% 29.9 0.0
04 09:55 Vrbl 7 G 17 9.00 Fair CLR 62.6 32 32% 29.9 0.0
04 09:35 Calm 10.00 Fair CLR 60.8 32 34% 29.91 0.0
04 09:15 Vrbl 6 G 16 10.00 Fair CLR 60.8 32 34% 29.91 0.0
04 08:55 S 9 G 17 10.00 Fair CLR 59 33.8 39% 29.91 0.0
04 08:35 S 9 10.00 Fair CLR 55.4 33.8 44% 29.92 0.0
04 08:15 S 8 G 16 10.00 Fair CLR 55.4 33.8 44% 29.92 0.0
04 07:55 S 9 10.00 Fair CLR 53.6 32 44% 29.92 0.0
04 07:35 Vrbl 6 G 15 10.00 A Few Clouds FEW085 51.8 30.2 44% 29.92 0.0
04 07:15 Vrbl 7 G 13 10.00 Mostly Cloudy BKN085 50 30.2 47% 48 29.92 0.0
04 06:55 Vrbl 6 G 13 10.00 Partly Cloudy SCT085 50 30.2 47% 48 29.92 0.0
04 06:35 S 8 G 15 10.00 A Few Clouds FEW080 48.2 30.2 50% 45 29.91 0.0
04 06:15 Vrbl 7 10.00 Partly Cloudy SCT080 48.2 32 54% 46 29.91 0.0
04 05:55 Vrbl 7 10.00 Fair CLR 46.4 32 57% 43 29.9 0.0
04 05:35 Vrbl 6 10.00 Fair CLR 46.4 30.2 53% 44 29.9 0.0
04 05:15 Vrbl 5 10.00 A Few Clouds FEW075 46.4 30.2 53% 45 29.9 0.0
04 04:55 Vrbl 3 10.00 Partly Cloudy SCT075 46.4 30.2 53% 29.9 0.0
04 04:35 Vrbl 6 10.00 Mostly Cloudy BKN075 46.4 32 57% 44 29.89 0.0
04 04:15 Calm 10.00 Mostly Cloudy BKN075 46.4 32 57% 29.89 0.0
04 03:55 Calm 10.00 Mostly Cloudy BKN075 48.2 32 54% 29.89 0.0
04 03:35 Vrbl 5 10.00 Mostly Cloudy BKN080 48.2 32 54% 47 29.89 0.0
04 03:15 Calm 10.00 Mostly Cloudy BKN080 48.2 30.2 50% 29.88 0.0
04 02:55 Calm 10.00 Partly Cloudy SCT080 SCT095 46.4 26.6 46% 29.88 0.0
04 02:35 Calm 10.00 Mostly Cloudy SCT080 BKN090 44.6 26.6 49% 29.88 0.0
04 02:15 Calm 10.00 Mostly Cloudy BKN090 46.4 26.6 46% 29.88 0.0
04 01:55 Calm 10.00 A Few Clouds FEW090 44.6 24.8 46% 29.89 0.0
04 01:35 Calm 10.00 Fair CLR 44.6 24.8 46% 29.88 0.0
04 01:15 Calm 10.00 Fair CLR 44.6 23 43% 29.88 0.0
04 00:55 Calm 10.00 Fair CLR 44.6 23 43% 29.88 0.0
04 00:35 Calm 10.00 Fair CLR 44.6 24.8 46% 29.88 0.0
04 00:15 Calm 10.00 Fair CLR 46.4 23 40% 29.88 0.0
03 23:55 Calm 10.00 Fair CLR 42.8 24.8 49% 29.88 0.0
03 23:35 Calm 10.00 Fair CLR 44.6 26.6 49% 29.87 0.0
03 23:15 Calm 10.00 Fair CLR 46.4 23 40% 29.87 0.0
03 22:55 Calm 10.00 Fair CLR 46.4 23 40% 29.87 0.0
03 22:35 Calm 10.00 Fair CLR 48.2 21.2 34% 29.87 0.0
03 22:15 Calm 10.00 Fair CLR 46.4 24.8 43% 29.87 0.0
03 21:55 Calm 10.00 Fair CLR 46.4 24.8 43% 29.87 0.0
03 21:35 Calm 10.00 Partly Cloudy SCT085 46.4 23 40% 29.86 0.0
03 21:15 Calm 10.00 A Few Clouds FEW085 46.4 23 40% 29.86 0.0
03 20:55 Calm 10.00 Fair CLR 48.2 23 37% 29.85 0.0
03 20:35 Calm 10.00 Fair CLR 46.4 23 40% 29.84 0.0
03 20:15 Calm 10.00 Fair CLR 50 23 35% 29.83 0.0
03 19:55 Calm 10.00 Fair CLR 51.8 21.2 30% 29.83 0.0
03 19:35 Calm 10.00 Fair CLR 53.6 19.4 26% 29.82 0.0
03 19:15 Vrbl 5 G 14 10.00 Fair CLR 55.4 19.4 24% 29.82 0.0
03 18:55 Vrbl 3 10.00 Fair CLR 55.4 21.2 26% 29.82 0.0
03 18:35 W 8 G 18 10.00 Fair CLR 55.4 19.4 24% 29.81 0.0
03 18:15 W 14 G 21 10.00 Fair CLR 55.4 19.4 24% 29.8 0.0
03 17:55 W 14 G 23 10.00 Fair CLR 55.4 19.4 24% 29.8 0.0
03 17:35 W 10 G 23 10.00 Fair CLR 55.4 19.4 24% 29.8 0.0
03 17:15 W 20 G 32 10.00 Fair CLR 55.4 19.4 24% 29.8 0.0
03 16:55 W 15 G 25 10.00 NULL NULL 55.4 19.4 24% 29.79 0.0
03 16:35 W 13 G 25 10.00 NULL NULL 53.6 21.2 28% 29.79 0.0
03 16:15 W 13 G 22 10.00 Mostly Cloudy FEW041 BKN070 55.4 21.2 26% 29.79 0.0
03 15:55 W 16 10.00 Partly Cloudy FEW042 SCT070 55.4 21.2 26% 29.78 0.0
03 15:35 W 15 G 26 10.00 Partly Cloudy FEW055 SCT070 55.4 19.4 24% 29.78 0.0
03 14:55 Vrbl 12 G 18 10.00 Mostly Cloudy FEW038 BKN065 BKN095 55.4 21.2 26% 29.78 0.0
03 14:35 W 9 G 23 10.00 Mostly Cloudy FEW041 BKN065 BKN095 53.6 21.2 28% 29.79 0.0
03 14:15 SW 15 G 29 10.00 Fair CLR 55.4 21.2 26% 29.78 0.0
03 13:55 W 15 G 33 10.00 Partly Cloudy FEW040 FEW065 SCT075 53.6 21.2 28% 29.78 0.0
03 13:35 Vrbl 17 G 30 10.00 Mostly Cloudy FEW041 BKN070 BKN110 55.4 23 28% 29.78 0.0
03 13:15 W 16 G 28 10.00 Mostly Cloudy FEW060 BKN070 BKN100 55.4 19.4 24% 29.78 0.0
03 12:55 SW 18 G 31 10.00 Mostly Cloudy SCT060 BKN075 BKN090 53.6 23 30% 29.78 0.0
03 12:35 W 14 G 24 10.00 Mostly Cloudy FEW050 BKN065 BKN075 51.8 24.8 35% 29.78 0.0
03 12:15 SW 10 G 25 10.00 Mostly Cloudy BKN055 BKN065 BKN090 51.8 26.6 38% 29.78 0.0
03 11:55 W 10 G 20 10.00 Mostly Cloudy FEW044 BKN055 BKN075 53.6 24.8 33% 29.78 0.0
03 11:35 SW 15 G 26 10.00 Mostly Cloudy BKN055 BKN070 51.8 24.8 35% 29.77 0.0
03 11:15 W 12 G 28 10.00 Partly Cloudy FEW048 SCT055 SCT070 53.6 24.8 33% 29.77 0.0
03 10:55 W 14 G 25 10.00 Partly Cloudy SCT046 SCT055 SCT070 53.6 28.4 38% 29.78 0.0
03 10:35 W 13 G 25 10.00 Partly Cloudy SCT040 BKN045 SCT065 50 28.4 43% 46 29.78 0.0
03 10:15 W 15 G 24 10.00 Mostly Cloudy BKN039 BKN045 BKN110 50 30.2 47% 45 29.78 0.0
03 09:55 W 12 G 18 10.00 Mostly Cloudy BKN038 BKN043 BKN050 48.2 30.2 50% 44 29.78 0.0
03 09:35 NW 16 G 22 10.00 A Few Clouds FEW037 FEW055 FEW075 50 28.4 43% 45 29.78 0.0
03 09:15 NW 15 G 29 10.00 A Few Clouds FEW070 FEW120 48.2 28.4 46% 43 29.79 0.0
03 08:55 W 16 G 25 10.00 Fair CLR 48.2 28.4 46% 43 29.79 0.0
Date Time (edt) Wind (mph) Vis. (mi.) Weather Sky Cond. Air Dwpt Max. Min. Relative Humidity Wind Chill (°F) Heat Index (°F) altimeter (in) sea level (mb) 1 hr 3 hr 6 hr
6 hour
Temperature (ºF) Pressure Precipitation (in)